Time;durP1;ratioP1;P1;durP2;ratioP2;P2;SDS_P1;SDS_P2;PMS_P1;PMS_P2;Temp;Humidity;BMP_temperature;BMP_pressure;BME280_temperature;BME280_humidity;BME280_pressure;Samples;Min_cycle;Max_cycle;Signal;HPM_P1;HPM_P2
2024/01/29 00:01:33;;;;;;;9.00;8.50;;;;;;;;;;5059149;28;20470;-78
2024/01/29 00:04:00;;;;;;;9.73;9.00;;;;;;;;;;5064755;28;20496;-78
2024/01/29 00:06:26;;;;;;;9.33;8.83;;;;;;;;;;5063486;28;20528;-78
2024/01/29 00:08:54;;;;;;;8.30;7.83;;;;;;;;;;5066851;28;20480;-79
2024/01/29 00:11:20;;;;;;;8.27;7.77;;;;;;;;;;5061292;28;20483;-79
2024/01/29 00:13:47;;;;;;;8.43;7.63;;;;;;;;;;5057854;28;20513;-78
2024/01/29 00:16:13;;;;;;;8.07;7.57;;;;;;;;;;5067584;28;20491;-79
2024/01/29 00:18:40;;;;;;;8.23;7.73;;;;;;;;;;5067580;28;20488;-79
2024/01/29 00:21:06;;;;;;;7.50;7.00;;;;;;;;;;5056045;28;20748;-78
2024/01/29 00:23:32;;;;;;;8.30;7.70;;;;;;;;;;5060493;28;20460;-78
2024/01/29 00:26:00;;;;;;;8.07;7.33;;;;;;;;;;5062122;28;20525;-79
2024/01/29 00:28:27;;;;;;;7.70;7.20;;;;;;;;;;5061553;28;20475;-78
2024/01/29 00:30:53;;;;;;;9.10;8.30;;;;;;;;;;5054771;28;20452;-78
2024/01/29 00:33:19;;;;;;;8.57;7.97;;;;;;;;;;5059034;28;20457;-78
2024/01/29 00:35:46;;;;;;;8.97;8.30;;;;;;;;;;5064358;28;20482;-85
2024/01/29 00:38:12;;;;;;;8.60;7.93;;;;;;;;;;5063989;28;20579;-83
2024/01/29 00:40:39;;;;;;;8.27;7.67;;;;;;;;;;5054779;28;20516;-86
2024/01/29 00:43:06;;;;;;;8.47;7.87;;;;;;;;;;5059828;28;20584;-85
2024/01/29 00:45:33;;;;;;;8.43;7.83;;;;;;;;;;5058253;28;20528;-83
2024/01/29 00:47:59;;;;;;;9.30;8.80;;;;;;;;;;5064552;28;20468;-78
2024/01/29 00:50:26;;;;;;;9.43;8.87;;;;;;;;;;5065288;28;20552;-78
2024/01/29 00:52:52;;;;;;;9.17;8.53;;;;;;;;;;5057154;28;20508;-78
2024/01/29 00:55:18;;;;;;;8.63;8.13;;;;;;;;;;5056107;28;20969;-78
2024/01/29 00:57:45;;;;;;;8.57;8.07;;;;;;;;;;5056081;28;20499;-78
2024/01/29 01:00:14;;;;;;;9.80;9.20;;;;;;;;;;5053904;28;20461;-78
2024/01/29 01:02:40;;;;;;;8.23;7.60;;;;;;;;;;5060524;28;20445;-78
2024/01/29 01:05:07;;;;;;;10.57;9.67;;;;;;;;;;5060209;28;20488;-78
2024/01/29 01:07:34;;;;;;;7.87;7.40;;;;;;;;;;5062241;28;20457;-78
2024/01/29 01:10:00;;;;;;;7.87;7.37;;;;;;;;;;5062097;28;20445;-85
2024/01/29 01:12:27;;;;;;;9.20;8.50;;;;;;;;;;5061235;28;20477;-86
2024/01/29 01:14:53;;;;;;;8.40;7.80;;;;;;;;;;5061088;28;20488;-85
2024/01/29 01:17:21;;;;;;;8.67;8.07;;;;;;;;;;5060114;28;20457;-85
2024/01/29 01:19:47;;;;;;;8.80;8.30;;;;;;;;;;5070508;28;20448;-86
2024/01/29 01:22:14;;;;;;;8.33;7.90;;;;;;;;;;5055196;28;20479;-78
2024/01/29 01:24:41;;;;;;;9.20;8.50;;;;;;;;;;5065551;28;20465;-78
2024/01/29 01:27:07;;;;;;;8.47;7.87;;;;;;;;;;5060117;28;20483;-78
2024/01/29 01:29:33;;;;;;;8.00;7.50;;;;;;;;;;5063886;28;20457;-78
2024/01/29 01:32:00;;;;;;;8.90;8.40;;;;;;;;;;5061032;28;20475;-86
2024/01/29 01:34:28;;;;;;;8.23;7.73;;;;;;;;;;5066021;28;20484;-78
2024/01/29 01:36:54;;;;;;;8.20;7.80;;;;;;;;;;5050589;28;20461;-78
2024/01/29 01:39:28;;;;;;;9.43;8.73;;;;;;;;;;5156371;27;20533;-71
2024/01/29 01:41:55;;;;;;;7.80;7.40;;;;;;;;;;5133353;27;20478;-74
2024/01/29 01:44:21;;;;;;;8.67;8.17;;;;;;;;;;5126972;27;21014;-73
2024/01/29 01:46:48;;;;;;;8.77;8.17;;;;;;;;;;5136537;27;20549;-74
2024/01/29 01:49:15;;;;;;;9.17;8.53;;;;;;;;;;5129309;27;20493;-70
2024/01/29 01:51:42;;;;;;;9.17;8.57;;;;;;;;;;5140082;27;20472;-73
2024/01/29 01:54:09;;;;;;;9.63;8.83;;;;;;;;;;5138311;27;20441;-73
2024/01/29 01:56:38;;;;;;;9.30;8.60;;;;;;;;;;5126778;27;20459;-74
2024/01/29 01:59:05;;;;;;;9.60;8.80;;;;;;;;;;5135638;27;20512;-72
2024/01/29 02:01:31;;;;;;;9.37;8.77;;;;;;;;;;5126468;28;21016;-73
2024/01/29 02:03:58;;;;;;;10.33;9.63;;;;;;;;;;5111504;28;20482;-68
2024/01/29 02:06:25;;;;;;;9.60;9.00;;;;;;;;;;5112130;28;20517;-73
2024/01/29 02:08:51;;;;;;;9.27;8.67;;;;;;;;;;5122710;28;20473;-72
2024/01/29 02:11:18;;;;;;;9.20;8.63;;;;;;;;;;5113951;28;20498;-73
2024/01/29 02:13:45;;;;;;;8.70;8.30;;;;;;;;;;5117402;28;20549;-73
2024/01/29 02:16:12;;;;;;;10.47;9.63;;;;;;;;;;5102430;28;20487;-73
2024/01/29 02:18:38;;;;;;;10.00;9.00;;;;;;;;;;5113028;28;20486;-74
2024/01/29 02:21:05;;;;;;;9.97;9.27;;;;;;;;;;5117443;28;20466;-70
2024/01/29 02:23:32;;;;;;;9.53;9.03;;;;;;;;;;5114220;28;20501;-74
2024/01/29 02:25:59;;;;;;;10.37;9.60;;;;;;;;;;5117420;28;20486;-72
2024/01/29 02:28:27;;;;;;;10.43;9.73;;;;;;;;;;5117147;28;20486;-71
2024/01/29 02:30:54;;;;;;;9.70;9.10;;;;;;;;;;5118154;28;20450;-74
2024/01/29 02:33:20;;;;;;;9.70;9.10;;;;;;;;;;5109343;28;20545;-73
2024/01/29 02:35:47;;;;;;;9.80;9.10;;;;;;;;;;5118472;28;20451;-74
2024/01/29 02:38:13;;;;;;;9.63;8.77;;;;;;;;;;5117970;28;21087;-74
2024/01/29 02:40:41;;;;;;;10.20;9.57;;;;;;;;;;5112375;28;21116;-73
2024/01/29 02:43:07;;;;;;;9.90;9.20;;;;;;;;;;5105792;28;20475;-72
2024/01/29 02:45:34;;;;;;;10.50;9.80;;;;;;;;;;5114698;28;20488;-73
2024/01/29 02:48:00;;;;;;;10.63;9.80;;;;;;;;;;5122970;28;20481;-73
2024/01/29 02:50:27;;;;;;;9.73;9.23;;;;;;;;;;5099385;28;21046;-73
2024/01/29 02:52:53;;;;;;;9.97;9.10;;;;;;;;;;5099827;28;20467;-73
2024/01/29 02:55:19;;;;;;;9.77;9.00;;;;;;;;;;5103869;28;20493;-69
2024/01/29 02:57:47;;;;;;;9.93;9.23;;;;;;;;;;5097593;28;20483;-70
2024/01/29 03:00:14;;;;;;;10.20;9.50;;;;;;;;;;5105478;28;20485;-72
2024/01/29 03:02:40;;;;;;;9.60;9.00;;;;;;;;;;5101150;28;20475;-73
2024/01/29 03:05:07;;;;;;;9.40;8.70;;;;;;;;;;5106786;28;20983;-68
2024/01/29 03:07:34;;;;;;;8.83;8.20;;;;;;;;;;5098774;28;20443;-72
2024/01/29 03:10:01;;;;;;;9.10;8.50;;;;;;;;;;5101525;28;20447;-72
2024/01/29 03:12:27;;;;;;;8.50;8.10;;;;;;;;;;5109962;28;20493;-73
2024/01/29 03:14:55;;;;;;;10.00;9.40;;;;;;;;;;5101832;28;21076;-73
2024/01/29 03:17:21;;;;;;;8.83;8.33;;;;;;;;;;5099133;28;20485;-72
2024/01/29 03:19:47;;;;;;;9.97;9.00;;;;;;;;;;5102997;28;20505;-73
2024/01/29 03:22:14;;;;;;;9.33;8.73;;;;;;;;;;5101907;28;20765;-74
2024/01/29 03:24:40;;;;;;;9.87;9.20;;;;;;;;;;5098907;28;20911;-74
2024/01/29 03:27:07;;;;;;;9.77;9.07;;;;;;;;;;5095948;28;20463;-71
2024/01/29 03:29:33;;;;;;;8.47;7.90;;;;;;;;;;5097187;28;20480;-73
2024/01/29 03:32:01;;;;;;;8.47;7.97;;;;;;;;;;5095192;28;20500;-70
2024/01/29 03:34:28;;;;;;;9.20;8.60;;;;;;;;;;5085366;28;20551;-72
2024/01/29 03:36:54;;;;;;;8.73;8.33;;;;;;;;;;5098534;28;20482;-74
2024/01/29 03:39:20;;;;;;;9.10;8.50;;;;;;;;;;5103213;28;20826;-72
2024/01/29 03:41:47;;;;;;;9.50;8.90;;;;;;;;;;5104951;28;20597;-70
2024/01/29 03:44:14;;;;;;;9.53;9.03;;;;;;;;;;5100694;28;20530;-69
2024/01/29 03:46:41;;;;;;;8.60;8.20;;;;;;;;;;5100443;28;20531;-73
2024/01/29 03:49:08;;;;;;;9.40;8.80;;;;;;;;;;5096784;28;20490;-73
2024/01/29 03:51:35;;;;;;;8.57;8.10;;;;;;;;;;5102883;28;20441;-71
2024/01/29 03:54:01;;;;;;;9.43;8.83;;;;;;;;;;5093408;28;20539;-71
2024/01/29 03:56:27;;;;;;;9.43;8.93;;;;;;;;;;5088365;28;20882;-73
2024/01/29 03:58:54;;;;;;;10.07;9.57;;;;;;;;;;5089387;28;20483;-74
2024/01/29 04:01:25;;;;;;;8.93;8.43;;;;;;;;;;5096090;28;20566;-73
2024/01/29 04:03:52;;;;;;;9.87;9.20;;;;;;;;;;5095564;28;20508;-72
2024/01/29 04:06:19;;;;;;;9.60;9.10;;;;;;;;;;5090616;28;20484;-72
2024/01/29 04:08:46;;;;;;;10.27;9.37;;;;;;;;;;5094131;28;20523;-70
2024/01/29 04:11:12;;;;;;;10.40;9.57;;;;;;;;;;5104651;28;20465;-70
2024/01/29 04:13:39;;;;;;;9.80;9.00;;;;;;;;;;5105537;28;20447;-72
2024/01/29 04:16:06;;;;;;;8.27;7.77;;;;;;;;;;5107488;28;20458;-73
2024/01/29 04:18:33;;;;;;;8.60;7.80;;;;;;;;;;5097765;28;20487;-70
2024/01/29 04:20:59;;;;;;;8.30;7.80;;;;;;;;;;5105994;28;20477;-70
2024/01/29 04:23:27;;;;;;;9.60;8.80;;;;;;;;;;5097577;28;20753;-69
2024/01/29 04:25:53;;;;;;;8.53;7.93;;;;;;;;;;5097458;28;20924;-70
2024/01/29 04:28:20;;;;;;;9.70;9.10;;;;;;;;;;5099100;28;20475;-72
2024/01/29 04:30:46;;;;;;;8.90;8.30;;;;;;;;;;5099686;28;20522;-69
2024/01/29 04:33:12;;;;;;;9.37;8.80;;;;;;;;;;5083545;28;20460;-69
2024/01/29 04:35:39;;;;;;;9.27;8.67;;;;;;;;;;5100698;28;20458;-70
2024/01/29 04:38:05;;;;;;;9.17;8.53;;;;;;;;;;5098966;28;20509;-73
2024/01/29 04:40:39;;;;;;;8.97;8.37;;;;;;;;;;5101248;28;20501;-73
2024/01/29 04:43:05;;;;;;;8.50;8.10;;;;;;;;;;5103234;28;20455;-69
2024/01/29 04:45:31;;;;;;;8.80;8.30;;;;;;;;;;5100713;28;20482;-73
2024/01/29 04:47:58;;;;;;;8.80;8.30;;;;;;;;;;5100143;28;20530;-71
2024/01/29 04:50:24;;;;;;;8.93;8.43;;;;;;;;;;5095053;28;20870;-72
2024/01/29 04:52:50;;;;;;;10.07;9.47;;;;;;;;;;5104193;28;20490;-72
2024/01/29 04:55:17;;;;;;;9.10;8.50;;;;;;;;;;5101505;28;20490;-69
2024/01/29 04:57:45;;;;;;;9.23;8.53;;;;;;;;;;5098606;28;20547;-70
2024/01/29 05:00:12;;;;;;;9.13;8.43;;;;;;;;;;5096151;28;20588;-74
2024/01/29 05:02:38;;;;;;;8.90;8.20;;;;;;;;;;5088085;28;20468;-69
2024/01/29 05:05:05;;;;;;;8.93;8.30;;;;;;;;;;5099705;28;20486;-71
2024/01/29 05:07:31;;;;;;;10.03;9.20;;;;;;;;;;5095634;28;20515;-71
2024/01/29 05:09:57;;;;;;;8.60;8.10;;;;;;;;;;5094089;28;20471;-72
2024/01/29 05:12:24;;;;;;;9.73;8.93;;;;;;;;;;5100966;28;20488;-72
2024/01/29 05:14:51;;;;;;;9.43;8.83;;;;;;;;;;5099345;28;20489;-74
2024/01/29 05:17:18;;;;;;;9.33;8.63;;;;;;;;;;5095674;28;20489;-72
2024/01/29 05:19:45;;;;;;;9.23;8.63;;;;;;;;;;5105765;28;20517;-72
2024/01/29 05:22:12;;;;;;;8.63;8.07;;;;;;;;;;5099653;28;20504;-73
2024/01/29 05:24:39;;;;;;;8.77;8.17;;;;;;;;;;5093105;28;20454;-69
2024/01/29 05:27:05;;;;;;;8.97;8.30;;;;;;;;;;5104890;28;20457;-71
2024/01/29 05:29:31;;;;;;;8.63;8.13;;;;;;;;;;5100660;28;20518;-73
2024/01/29 05:31:59;;;;;;;10.07;9.27;;;;;;;;;;5102671;28;20512;-73
2024/01/29 05:34:26;;;;;;;7.47;6.97;;;;;;;;;;5091011;28;20491;-70
2024/01/29 05:36:52;;;;;;;8.90;8.20;;;;;;;;;;5100773;28;20478;-73
2024/01/29 05:39:18;;;;;;;8.47;7.87;;;;;;;;;;5087902;28;21119;-71
2024/01/29 05:41:45;;;;;;;8.27;7.53;;;;;;;;;;5095403;28;20479;-71
2024/01/29 05:44:11;;;;;;;8.70;7.87;;;;;;;;;;5089812;28;20498;-73
2024/01/29 05:46:38;;;;;;;8.20;7.53;;;;;;;;;;5092348;28;20482;-71
2024/01/29 05:49:06;;;;;;;7.63;7.13;;;;;;;;;;5099461;28;20447;-73
2024/01/29 05:51:32;;;;;;;8.40;7.37;;;;;;;;;;5097763;28;20474;-73
2024/01/29 05:54:00;;;;;;;7.93;7.27;;;;;;;;;;5098450;28;20478;-72
2024/01/29 05:56:26;;;;;;;12.17;11.10;;;;;;;;;;5097297;28;20463;-72
2024/01/29 05:58:53;;;;;;;13.07;12.30;;;;;;;;;;5095997;28;20482;-71
2024/01/29 06:01:19;;;;;;;12.10;11.40;;;;;;;;;;5102058;28;20500;-70
2024/01/29 06:03:45;;;;;;;11.20;10.40;;;;;;;;;;5089799;28;20939;-73
2024/01/29 06:06:13;;;;;;;8.67;7.87;;;;;;;;;;5092444;28;20484;-74
2024/01/29 06:08:39;;;;;;;8.40;7.90;;;;;;;;;;5093162;28;21042;-70
2024/01/29 06:11:06;;;;;;;8.30;7.60;;;;;;;;;;5097369;28;20543;-70
2024/01/29 06:13:32;;;;;;;8.00;7.50;;;;;;;;;;5092672;28;20486;-72
2024/01/29 06:16:00;;;;;;;9.17;8.37;;;;;;;;;;5087415;28;20577;-72
2024/01/29 06:18:26;;;;;;;8.63;7.93;;;;;;;;;;5088999;28;20486;-70
2024/01/29 06:20:52;;;;;;;10.13;9.20;;;;;;;;;;5097749;28;20586;-69
2024/01/29 06:23:20;;;;;;;10.27;9.23;;;;;;;;;;5098331;28;20944;-70
2024/01/29 06:25:47;;;;;;;9.27;8.57;;;;;;;;;;5085587;28;20534;-73
2024/01/29 06:28:13;;;;;;;8.90;8.20;;;;;;;;;;5093419;28;20530;-73
2024/01/29 06:30:40;;;;;;;9.47;8.77;;;;;;;;;;5097883;28;20470;-70
2024/01/29 06:33:06;;;;;;;10.03;9.27;;;;;;;;;;5097203;28;20482;-72
2024/01/29 06:35:32;;;;;;;8.60;7.97;;;;;;;;;;5099626;28;20886;-73
2024/01/29 06:37:59;;;;;;;9.90;9.20;;;;;;;;;;5099044;28;20899;-72
2024/01/29 06:40:27;;;;;;;9.77;9.07;;;;;;;;;;5097798;28;20920;-73
2024/01/29 06:42:54;;;;;;;10.40;9.57;;;;;;;;;;5106360;28;20442;-73
2024/01/29 06:45:21;;;;;;;9.30;8.53;;;;;;;;;;5102471;28;20488;-73
2024/01/29 06:47:47;;;;;;;10.00;8.87;;;;;;;;;;5099362;28;20512;-73
2024/01/29 06:50:14;;;;;;;9.67;8.93;;;;;;;;;;5089195;28;20452;-71
2024/01/29 06:52:40;;;;;;;10.13;9.13;;;;;;;;;;5101295;28;20471;-70
2024/01/29 06:55:07;;;;;;;9.10;8.40;;;;;;;;;;5083777;28;20456;-71
2024/01/29 06:57:35;;;;;;;8.70;7.90;;;;;;;;;;5100569;28;20444;-72
2024/01/29 07:00:01;;;;;;;9.63;8.80;;;;;;;;;;5098394;28;20892;-71
2024/01/29 07:02:27;;;;;;;9.03;8.23;;;;;;;;;;5097481;28;20815;-73
2024/01/29 07:04:54;;;;;;;9.10;8.40;;;;;;;;;;5097064;28;20494;-71
2024/01/29 07:07:20;;;;;;;7.90;7.20;;;;;;;;;;5098638;28;20450;-70
2024/01/29 07:09:47;;;;;;;10.27;9.40;;;;;;;;;;5097811;28;20469;-72
2024/01/29 07:12:15;;;;;;;11.50;10.70;;;;;;;;;;5098068;28;20463;-73
2024/01/29 07:14:42;;;;;;;10.40;9.80;;;;;;;;;;5093334;28;20467;-70
2024/01/29 07:17:09;;;;;;;11.60;10.17;;;;;;;;;;5095385;28;20512;-69
2024/01/29 07:19:35;;;;;;;8.17;7.40;;;;;;;;;;5090836;28;20551;-71
2024/01/29 07:22:04;;;;;;;8.43;7.67;;;;;;;;;;5096464;28;20470;-73
2024/01/29 07:24:31;;;;;;;8.37;7.57;;;;;;;;;;5090563;28;20505;-72
2024/01/29 07:26:58;;;;;;;8.20;7.60;;;;;;;;;;5084031;28;20501;-71
2024/01/29 07:29:26;;;;;;;9.00;7.93;;;;;;;;;;5090822;28;20451;-72
2024/01/29 07:31:54;;;;;;;8.20;7.70;;;;;;;;;;5085669;28;20469;-71
2024/01/29 07:34:20;;;;;;;8.03;7.33;;;;;;;;;;5090986;28;20502;-70
2024/01/29 07:36:47;;;;;;;8.97;8.27;;;;;;;;;;5102199;28;20486;-70
2024/01/29 07:39:14;;;;;;;10.03;7.90;;;;;;;;;;5093889;28;20522;-71
2024/01/29 07:41:40;;;;;;;7.80;7.30;;;;;;;;;;5096270;28;20522;-70
2024/01/29 07:44:07;;;;;;;9.10;8.40;;;;;;;;;;5093489;28;20483;-66
2024/01/29 07:46:33;;;;;;;9.83;9.03;;;;;;;;;;5094726;28;20460;-69
2024/01/29 07:49:03;;;;;;;9.67;8.80;;;;;;;;;;5086348;28;20455;-69
2024/01/29 07:51:30;;;;;;;8.93;8.10;;;;;;;;;;5089810;28;21041;-68
2024/01/29 07:53:56;;;;;;;9.77;8.23;;;;;;;;;;5089989;28;20463;-69
2024/01/29 07:56:23;;;;;;;9.77;8.97;;;;;;;;;;5092809;28;20486;-69
2024/01/29 07:58:49;;;;;;;9.93;9.13;;;;;;;;;;5097145;28;20498;-70
2024/01/29 08:01:16;;;;;;;9.20;8.50;;;;;;;;;;5097218;28;20478;-69
2024/01/29 08:03:43;;;;;;;10.40;9.40;;;;;;;;;;5095635;28;20968;-69
2024/01/29 08:06:11;;;;;;;9.63;9.03;;;;;;;;;;5091762;28;20490;-68
2024/01/29 08:08:38;;;;;;;10.63;9.63;;;;;;;;;;5088922;28;20473;-70
2024/01/29 08:11:04;;;;;;;10.40;9.60;;;;;;;;;;5088210;28;20447;-69
2024/01/29 08:13:30;;;;;;;10.33;9.33;;;;;;;;;;5094074;28;20520;-70
2024/01/29 08:15:57;;;;;;;10.70;9.67;;;;;;;;;;5092719;28;20491;-68
2024/01/29 08:18:23;;;;;;;10.30;9.47;;;;;;;;;;5096614;28;20942;-66
2024/01/29 08:20:50;;;;;;;10.20;9.50;;;;;;;;;;5094379;28;20743;-68
2024/01/29 08:23:17;;;;;;;10.40;9.60;;;;;;;;;;5093416;28;20455;-68
2024/01/29 08:25:44;;;;;;;10.47;9.77;;;;;;;;;;5096252;28;20439;-71
2024/01/29 08:28:11;;;;;;;10.47;9.70;;;;;;;;;;5092488;28;20566;-72
2024/01/29 08:30:37;;;;;;;10.63;9.93;;;;;;;;;;5086920;28;20880;-70
2024/01/29 08:33:04;;;;;;;11.33;10.43;;;;;;;;;;5090519;28;20435;-69
2024/01/29 08:35:31;;;;;;;11.50;10.70;;;;;;;;;;5092156;28;20489;-70
2024/01/29 08:37:57;;;;;;;12.10;11.10;;;;;;;;;;5089406;28;20475;-68
2024/01/29 08:40:25;;;;;;;11.40;10.40;;;;;;;;;;5093405;28;20552;-69
2024/01/29 08:42:51;;;;;;;11.10;10.10;;;;;;;;;;5089761;28;20478;-70
2024/01/29 08:45:18;;;;;;;11.77;10.87;;;;;;;;;;5092973;28;20895;-72
2024/01/29 08:47:44;;;;;;;11.57;10.67;;;;;;;;;;5085724;28;20460;-73
2024/01/29 08:50:11;;;;;;;10.90;10.10;;;;;;;;;;5095941;28;20479;-73
2024/01/29 08:52:37;;;;;;;11.57;10.67;;;;;;;;;;5086579;28;20439;-70
2024/01/29 08:55:04;;;;;;;12.07;11.00;;;;;;;;;;5097034;28;20899;-69
2024/01/29 08:57:32;;;;;;;12.40;11.13;;;;;;;;;;5097817;28;20465;-68
2024/01/29 08:59:58;;;;;;;11.20;10.30;;;;;;;;;;5088516;28;20484;-71
2024/01/29 09:02:27;;;;;;;11.40;10.60;;;;;;;;;;5083323;28;20535;-68
2024/01/29 09:04:54;;;;;;;9.70;8.90;;;;;;;;;;5087368;28;22034;-71
2024/01/29 09:07:20;;;;;;;15.83;14.60;;;;;;;;;;5092645;28;20890;-71
2024/01/29 09:09:47;;;;;;;16.70;15.50;;;;;;;;;;5091695;28;20479;-70
2024/01/29 09:12:13;;;;;;;14.97;13.77;;;;;;;;;;5095596;28;21018;-69
2024/01/29 09:14:41;;;;;;;13.90;13.00;;;;;;;;;;5097310;28;20511;-68
2024/01/29 09:17:07;;;;;;;12.30;11.23;;;;;;;;;;5092854;28;20530;-71
2024/01/29 09:19:34;;;;;;;11.93;10.87;;;;;;;;;;5097166;28;20802;-73
2024/01/29 09:22:00;;;;;;;11.00;10.30;;;;;;;;;;5094699;28;20471;-70
2024/01/29 09:24:27;;;;;;;9.07;8.47;;;;;;;;;;5098805;28;20518;-69
2024/01/29 09:26:53;;;;;;;9.63;9.03;;;;;;;;;;5091311;28;20494;-73
2024/01/29 09:29:19;;;;;;;10.23;9.40;;;;;;;;;;5090926;28;20551;-71
2024/01/29 09:31:47;;;;;;;9.97;9.17;;;;;;;;;;5083380;28;20903;-71
2024/01/29 09:34:14;;;;;;;12.03;11.17;;;;;;;;;;5095556;28;20480;-70
2024/01/29 09:36:40;;;;;;;11.43;10.53;;;;;;;;;;5093472;28;20484;-72
2024/01/29 09:39:07;;;;;;;10.93;10.23;;;;;;;;;;5085851;28;20986;-71
2024/01/29 09:41:34;;;;;;;12.07;11.07;;;;;;;;;;5086582;28;20491;-77
2024/01/29 09:44:04;;;;;;;11.20;10.50;;;;;;;;;;5097095;28;20991;-75
2024/01/29 09:46:31;;;;;;;11.73;10.83;;;;;;;;;;5097193;28;20450;-73
2024/01/29 09:48:59;;;;;;;10.80;10.00;;;;;;;;;;5084826;28;20487;-71
2024/01/29 09:51:26;;;;;;;11.97;11.03;;;;;;;;;;5094505;28;20492;-71
2024/01/29 09:53:54;;;;;;;11.97;11.17;;;;;;;;;;5082740;28;20459;-71
2024/01/29 09:56:21;;;;;;;11.83;11.03;;;;;;;;;;5087097;28;20949;-73
2024/01/29 09:58:47;;;;;;;11.07;10.37;;;;;;;;;;5092842;28;20483;-72
2024/01/29 10:01:18;;;;;;;10.97;10.17;;;;;;;;;;5101266;28;20992;-72
2024/01/29 10:03:45;;;;;;;11.20;10.40;;;;;;;;;;5096343;28;20439;-72
2024/01/29 10:06:12;;;;;;;11.80;10.83;;;;;;;;;;5099690;28;20462;-73
2024/01/29 10:08:39;;;;;;;11.30;10.50;;;;;;;;;;5096746;28;20450;-73
2024/01/29 10:11:06;;;;;;;10.27;9.57;;;;;;;;;;5100069;28;20447;-75
2024/01/29 10:13:32;;;;;;;9.97;8.97;;;;;;;;;;5099930;28;20451;-70
2024/01/29 10:15:59;;;;;;;12.63;11.83;;;;;;;;;;5093504;28;20761;-70
2024/01/29 10:18:26;;;;;;;13.97;12.87;;;;;;;;;;5089620;28;20460;-73
2024/01/29 10:20:59;;;;;;;13.57;12.40;;;;;;;;;;5101824;28;20471;-64
2024/01/29 10:23:27;;;;;;;12.50;11.70;;;;;;;;;;5099787;28;20475;-64
2024/01/29 10:25:55;;;;;;;13.40;12.50;;;;;;;;;;5097928;28;20515;-66
2024/01/29 10:28:22;;;;;;;13.23;12.20;;;;;;;;;;5096929;28;20477;-63
2024/01/29 10:30:49;;;;;;;12.93;12.13;;;;;;;;;;5098614;28;21123;-64
2024/01/29 10:33:15;;;;;;;12.47;11.70;;;;;;;;;;5099348;28;20447;-68
2024/01/29 10:35:42;;;;;;;12.13;11.30;;;;;;;;;;5094653;28;20451;-64
2024/01/29 10:38:08;;;;;;;12.53;11.83;;;;;;;;;;5088013;28;20475;-64
2024/01/29 10:40:37;;;;;;;10.83;10.17;;;;;;;;;;5089346;28;20483;-64
2024/01/29 10:43:04;;;;;;;10.83;9.97;;;;;;;;;;5090137;28;20892;-65
2024/01/29 10:45:35;;;;;;;14.27;13.07;;;;;;;;;;5097132;28;20500;-65
2024/01/29 10:48:06;;;;;;;10.23;9.53;;;;;;;;;;5084998;28;20965;-64
2024/01/29 10:50:32;;;;;;;14.80;13.90;;;;;;;;;;5084199;28;20466;-65
2024/01/29 10:53:01;;;;;;;11.20;10.23;;;;;;;;;;5095795;28;20471;-63
2024/01/29 10:55:30;;;;;;;10.10;9.50;;;;;;;;;;5094754;28;20939;-64
2024/01/29 10:58:00;;;;;;;10.33;9.67;;;;;;;;;;5095689;28;20447;-63
2024/01/29 11:00:27;;;;;;;12.73;12.03;;;;;;;;;;5090153;28;20684;-64
2024/01/29 11:02:54;;;;;;;12.67;11.80;;;;;;;;;;5095310;28;20601;-64
2024/01/29 11:05:21;;;;;;;13.63;12.37;;;;;;;;;;5094011;28;20493;-65
2024/01/29 11:07:49;;;;;;;12.60;11.50;;;;;;;;;;5093711;28;20471;-65
2024/01/29 11:10:18;;;;;;;9.70;9.00;;;;;;;;;;5095964;28;20446;-74
2024/01/29 11:12:44;;;;;;;9.30;8.70;;;;;;;;;;5097008;28;20454;-73
2024/01/29 11:15:12;;;;;;;10.63;9.93;;;;;;;;;;5096050;28;20495;-73
2024/01/29 11:17:40;;;;;;;10.10;9.20;;;;;;;;;;5097015;28;20508;-74
2024/01/29 11:20:10;;;;;;;10.50;9.70;;;;;;;;;;5087913;28;20490;-70
2024/01/29 11:22:36;;;;;;;8.90;8.30;;;;;;;;;;5097398;28;20482;-72
2024/01/29 11:25:08;;;;;;;10.13;9.33;;;;;;;;;;5091788;28;20497;-74
2024/01/29 11:27:34;;;;;;;11.17;10.17;;;;;;;;;;5091615;28;20483;-73
2024/01/29 11:30:10;;;;;;;10.63;9.80;;;;;;;;;;5100299;28;20494;-74
2024/01/29 11:32:40;;;;;;;14.17;13.37;;;;;;;;;;5093733;28;20454;-70
2024/01/29 11:35:10;;;;;;;10.67;9.70;;;;;;;;;;5096955;28;20455;-73
2024/01/29 11:37:37;;;;;;;11.20;9.93;;;;;;;;;;5090525;28;20498;-72
2024/01/29 11:40:04;;;;;;;10.57;9.77;;;;;;;;;;5097979;28;20909;-72
2024/01/29 11:42:30;;;;;;;10.37;9.60;;;;;;;;;;5097005;28;20479;-71
2024/01/29 11:44:57;;;;;;;10.53;9.83;;;;;;;;;;5090808;28;20478;-70
2024/01/29 11:47:24;;;;;;;10.20;9.50;;;;;;;;;;5088320;28;20467;-73
2024/01/29 11:49:52;;;;;;;10.20;9.60;;;;;;;;;;5090246;28;20492;-74
2024/01/29 11:52:18;;;;;;;8.87;8.27;;;;;;;;;;5094800;28;20490;-72
2024/01/29 11:54:45;;;;;;;9.20;8.40;;;;;;;;;;5093282;28;20695;-74
2024/01/29 11:57:11;;;;;;;10.27;9.57;;;;;;;;;;5096169;28;20725;-72
2024/01/29 11:59:43;;;;;;;10.93;10.03;;;;;;;;;;5090048;28;20460;-70
2024/01/29 12:02:10;;;;;;;10.73;10.03;;;;;;;;;;5096903;28;20569;-73
2024/01/29 12:04:36;;;;;;;10.20;9.37;;;;;;;;;;5107754;28;20483;-72
2024/01/29 12:07:05;;;;;;;10.20;9.43;;;;;;;;;;5099182;28;20805;-70
2024/01/29 12:09:33;;;;;;;10.60;9.50;;;;;;;;;;5098838;28;20546;-70
2024/01/29 12:11:59;;;;;;;59.43;17.00;;;;;;;;;;5098959;28;20999;-76
2024/01/29 12:14:25;;;;;;;11.07;10.07;;;;;;;;;;5093391;28;21026;-64
2024/01/29 12:16:52;;;;;;;11.70;11.00;;;;;;;;;;5097160;28;20566;-64
2024/01/29 12:19:18;;;;;;;10.57;9.50;;;;;;;;;;5094752;28;20455;-63
2024/01/29 12:21:45;;;;;;;10.53;9.83;;;;;;;;;;5097194;28;20510;-62
2024/01/29 12:24:13;;;;;;;6.47;6.27;;;;;;;;;;5096419;28;20439;-63
2024/01/29 12:26:39;;;;;;;7.07;6.80;;;;;;;;;;5094808;28;20455;-63
2024/01/29 12:29:06;;;;;;;6.40;6.20;;;;;;;;;;5092865;28;20488;-64
2024/01/29 12:31:37;;;;;;;6.03;5.83;;;;;;;;;;5096003;28;20514;-65
2024/01/29 12:34:03;;;;;;;9.10;8.80;;;;;;;;;;5094193;28;20439;-64
2024/01/29 12:36:30;;;;;;;10.70;10.00;;;;;;;;;;5095107;28;20827;-63
2024/01/29 12:38:58;;;;;;;10.80;9.80;;;;;;;;;;5095701;28;20518;-63
2024/01/29 12:41:33;;;;;;;11.27;10.47;;;;;;;;;;5093372;28;20501;-63
2024/01/29 12:44:09;;;;;;;10.43;9.47;;;;;;;;;;5091023;28;20458;-64
2024/01/29 12:46:35;;;;;;;10.30;9.50;;;;;;;;;;5095497;28;20448;-63
2024/01/29 12:49:03;;;;;;;11.07;10.27;;;;;;;;;;5095686;28;20528;-64
2024/01/29 12:51:29;;;;;;;11.60;10.60;;;;;;;;;;5098767;28;20443;-65
2024/01/29 12:53:56;;;;;;;10.90;10.20;;;;;;;;;;5089302;28;20925;-63
2024/01/29 12:56:23;;;;;;;11.77;10.67;;;;;;;;;;5093385;28;20447;-64
2024/01/29 12:58:50;;;;;;;11.27;10.47;;;;;;;;;;5094956;28;20542;-64
2024/01/29 13:01:17;;;;;;;11.77;10.97;;;;;;;;;;5094054;28;20558;-63
2024/01/29 13:03:43;;;;;;;10.83;9.93;;;;;;;;;;5094953;28;20451;-64
2024/01/29 13:06:10;;;;;;;11.97;10.97;;;;;;;;;;5096503;28;20490;-64
2024/01/29 13:08:37;;;;;;;11.00;10.13;;;;;;;;;;5095124;28;20457;-66
2024/01/29 13:11:03;;;;;;;11.43;10.63;;;;;;;;;;5091654;28;20457;-65
2024/01/29 13:13:29;;;;;;;11.57;10.77;;;;;;;;;;5092507;28;20503;-64
2024/01/29 13:15:57;;;;;;;10.83;10.20;;;;;;;;;;5094824;28;20483;-63
2024/01/29 13:18:25;;;;;;;10.33;9.40;;;;;;;;;;5094794;28;20471;-64
2024/01/29 13:20:52;;;;;;;10.10;9.20;;;;;;;;;;5098200;28;20463;-63
2024/01/29 13:23:18;;;;;;;9.60;8.87;;;;;;;;;;5091825;28;20463;-63
2024/01/29 13:25:46;;;;;;;8.60;8.00;;;;;;;;;;5090460;28;20449;-62
2024/01/29 13:28:13;;;;;;;10.57;9.67;;;;;;;;;;5092197;28;20451;-64
2024/01/29 13:30:40;;;;;;;8.60;8.03;;;;;;;;;;5093247;28;20458;-63
2024/01/29 13:33:18;;;;;;;10.83;10.13;;;;;;;;;;5097649;28;20432;-63
2024/01/29 13:35:45;;;;;;;10.73;10.03;;;;;;;;;;5097940;28;20466;-64
2024/01/29 13:38:11;;;;;;;11.43;10.60;;;;;;;;;;5096084;28;20494;-64
2024/01/29 13:40:38;;;;;;;11.10;10.30;;;;;;;;;;5096545;28;20500;-67
2024/01/29 13:43:04;;;;;;;11.40;10.40;;;;;;;;;;5094474;28;20525;-64
2024/01/29 13:45:31;;;;;;;9.33;8.60;;;;;;;;;;5096710;28;20502;-63
2024/01/29 13:47:58;;;;;;;10.07;9.17;;;;;;;;;;5095861;28;20468;-63
2024/01/29 13:50:26;;;;;;;9.23;8.10;;;;;;;;;;5094605;28;20458;-63
2024/01/29 13:52:52;;;;;;;9.57;8.80;;;;;;;;;;5094232;28;20963;-64
2024/01/29 13:55:19;;;;;;;10.80;10.00;;;;;;;;;;5094743;28;20451;-64
2024/01/29 13:57:45;;;;;;;12.13;11.13;;;;;;;;;;5096949;28;20496;-63
2024/01/29 14:00:13;;;;;;;10.17;9.27;;;;;;;;;;5095026;28;20454;-63
2024/01/29 14:02:40;;;;;;;11.53;8.90;;;;;;;;;;5089004;28;20507;-64
2024/01/29 14:05:06;;;;;;;9.40;8.50;;;;;;;;;;5098559;28;20440;-63
2024/01/29 14:07:34;;;;;;;11.03;10.03;;;;;;;;;;5095666;28;20451;-63
2024/01/29 14:10:01;;;;;;;10.33;9.30;;;;;;;;;;5094558;28;20479;-64
2024/01/29 14:12:28;;;;;;;9.70;8.90;;;;;;;;;;5093216;28;20823;-63
2024/01/29 14:14:55;;;;;;;10.80;9.90;;;;;;;;;;5089807;28;20478;-63
2024/01/29 14:17:21;;;;;;;11.03;10.13;;;;;;;;;;5087584;28;20462;-63
2024/01/29 14:19:48;;;;;;;12.23;11.03;;;;;;;;;;5091690;28;20465;-64
2024/01/29 14:22:14;;;;;;;13.90;12.40;;;;;;;;;;5096123;28;20562;-64
2024/01/29 14:24:42;;;;;;;13.40;12.27;;;;;;;;;;5095644;28;20447;-64
2024/01/29 14:27:08;;;;;;;12.13;11.00;;;;;;;;;;5095261;28;20470;-64
2024/01/29 14:29:35;;;;;;;11.90;11.10;;;;;;;;;;5093007;28;20455;-64
2024/01/29 14:32:02;;;;;;;10.47;9.57;;;;;;;;;;5089772;28;20481;-64